Clark, Wyoming
Current Conditions -  °F | °C
As of 8:55 AM on Friday 28 Nov 2014 (Local Time) from KPOY Reporting Station
Clear Clear  
Wind Chill: 38°   Ceiling: Unl
Heat Index: 46°   Visibility: 10mi
Dew Point: 23°   Wind: 25mph
Humidity: 40%   Direction: 240°WSW
Pressure: 29.72"   Gusts: 32mph
Location:  44.8625°N, 108.965°W
Report Text: KPOY 281555Z AUTO 24022G28KT 10SM CLR 08/M05 A2972 RMK AO2
Loading
Personal Weather Stations






























Interactive Weather Map New forecast layout! Learn more

10-Day Weather Forecast

Advertisements
Track Severe Weather on mobile